Time;durP1;ratioP1;P1;durP2;ratioP2;P2;SDS_P1;SDS_P2;PMS_P1;PMS_P2;Temp;Humidity;BMP_temperature;BMP_pressure;BME280_temperature;BME280_humidity;BME280_pressure;Samples;Min_cycle;Max_cycle;Signal;HPM_P1;HPM_P2
2024/01/27 00:01:16;;;;;;;15.07;6.47;;;;;;;-143.21;58.35;73817.69;4920385;29;20208;-92
2024/01/27 00:03:43;;;;;;;14.50;5.73;;;;;;;-143.21;58.60;73807.75;4920076;29;20282;-92
2024/01/27 00:06:10;;;;;;;13.97;5.80;;;;;;;-143.21;58.26;73799.81;4920698;29;20215;-92
2024/01/27 00:08:37;;;;;;;9.80;5.37;;;;;;;-143.21;58.46;73805.78;4924039;29;20208;-90
2024/01/27 00:11:06;;;;;;;11.03;5.37;;;;;;;-143.21;58.70;73809.75;4930486;29;20214;-91
2024/01/27 00:13:33;;;;;;;11.50;6.43;;;;;;;-143.21;58.39;73805.78;4917395;29;20201;-91
2024/01/27 00:16:00;;;;;;;11.20;6.40;;;;;;;-143.21;58.36;73807.75;4913659;29;20638;-92
2024/01/27 00:18:29;;;;;;;14.00;6.63;;;;;;;-143.21;58.71;73807.75;4912162;29;20208;-91
2024/01/27 00:20:55;;;;;;;11.77;5.40;;;;;;;-143.21;58.72;73803.78;4907959;29;20641;-90
2024/01/27 00:23:22;;;;;;;8.17;4.43;;;;;;;-143.21;58.58;73799.81;4917785;29;20580;-88
2024/01/27 00:25:49;;;;;;;8.70;5.27;;;;;;;-143.21;58.81;73793.88;4918274;29;20223;-91
2024/01/27 00:28:16;;;;;;;14.23;4.70;;;;;;;-143.21;58.70;73801.81;4914805;29;20274;-90
2024/01/27 00:30:43;;;;;;;10.33;5.27;;;;;;;-143.21;58.56;73789.91;4908566;29;20207;-89
2024/01/27 00:33:13;;;;;;;15.57;5.33;;;;;;;-143.21;58.40;73791.88;4918155;29;20205;-92
2024/01/27 00:35:42;;;;;;;9.57;5.00;;;;;;;-143.21;58.26;73783.94;4926668;29;20235;-91
2024/01/27 00:40:51;;;;;;;11.40;6.73;;;;;;;-143.21;58.28;73778.00;4902102;29;20234;-91
2024/01/27 00:43:18;;;;;;;15.77;6.63;;;;;;;-143.21;58.26;73785.94;4907868;29;20702;-90
2024/01/27 00:45:45;;;;;;;12.93;5.83;;;;;;;-143.21;58.53;73772.03;4909332;29;20561;-90
2024/01/27 00:48:12;;;;;;;14.27;5.53;;;;;;;-143.21;58.50;73781.97;4925239;29;20204;-89
2024/01/27 00:50:38;;;;;;;12.40;5.23;;;;;;;-143.21;58.63;73776.00;4929819;29;20222;-90
2024/01/27 00:53:07;;;;;;;13.63;6.23;;;;;;;-143.21;58.83;73785.94;4925193;29;20213;-89
2024/01/27 00:55:34;;;;;;;12.47;6.10;;;;;;;-143.21;59.12;73785.94;4929189;29;20207;-92
2024/01/27 00:58:05;;;;;;;13.23;5.50;;;;;;;-143.21;58.95;73781.97;4926807;29;20296;-92
2024/01/27 01:00:31;;;;;;;14.60;6.17;;;;;;;-143.21;59.52;73774.03;4917406;29;20209;-89
2024/01/27 01:02:57;;;;;;;15.50;5.60;;;;;;;-143.21;59.46;73783.94;4917480;29;20202;-90
2024/01/27 01:05:24;;;;;;;10.53;4.63;;;;;;;-143.21;60.28;73797.84;4924446;29;20206;-90
2024/01/27 01:07:51;;;;;;;8.77;4.13;;;;;;;-143.21;60.66;73819.66;4925630;29;20210;-89
2024/01/27 01:10:19;;;;;;;7.63;4.53;;;;;;;-143.21;62.66;73855.38;4920315;29;20266;-91
2024/01/27 01:12:46;;;;;;;11.30;4.33;;;;;;;-143.21;62.28;73851.41;4917089;29;20216;-90
2024/01/27 01:15:13;;;;;;;11.27;5.00;;;;;;;-143.21;62.29;73841.47;4907922;29;20223;-91
2024/01/27 01:17:43;;;;;;;9.17;4.23;;;;;;;-143.21;61.86;73815.69;4913039;29;20224;-92
2024/01/27 01:20:18;;;;;;;8.50;5.00;;;;;;;-143.21;61.67;73813.72;4924618;29;20219;-92
2024/01/27 01:25:10;;;;;;;9.55;4.35;;;;;;;-143.21;61.99;73819.66;4921995;23;20757;-89
2024/01/27 01:27:38;;;;;;;13.13;4.13;;;;;;;-143.21;61.59;73839.50;4924440;29;20506;-90
2024/01/27 01:30:06;;;;;;;10.27;4.47;;;;;;;-143.21;61.36;73825.59;4917050;29;20555;-90
2024/01/27 01:32:33;;;;;;;9.80;4.10;;;;;;;-143.21;61.17;73823.63;4921722;29;20732;-91
2024/01/27 01:34:59;;;;;;;10.63;4.47;;;;;;;-143.21;61.31;73827.59;4913421;29;20212;-90
2024/01/27 01:37:28;;;;;;;9.63;4.47;;;;;;;-143.21;61.80;73833.53;4928370;29;20608;-91
2024/01/27 01:39:55;;;;;;;9.97;3.30;;;;;;;-143.21;61.25;73823.63;4925860;29;20217;-90
2024/01/27 01:42:24;;;;;;;10.50;3.87;;;;;;;-143.21;61.24;73807.75;4934567;29;20473;-90
2024/01/27 01:44:52;;;;;;;7.13;4.00;;;;;;;-143.21;60.86;73791.88;4935565;29;20610;-90
2024/01/27 01:47:19;;;;;;;7.57;4.10;;;;;;;-143.21;60.59;73797.84;4923022;29;20206;-90
2024/01/27 01:49:46;;;;;;;9.30;4.17;;;;;;;-143.21;60.96;73799.81;4918628;29;20212;-91
2024/01/27 01:52:19;;;;;;;8.50;3.80;;;;;;;-143.21;61.07;73789.91;4926749;29;20287;-92
2024/01/27 01:54:47;;;;;;;9.87;3.73;;;;;;;-143.21;60.71;73783.94;4920012;29;20208;-91
2024/01/27 01:57:15;;;;;;;8.50;4.13;;;;;;;-143.21;60.31;73772.03;4922250;29;20233;-91
2024/01/27 01:59:42;;;;;;;10.10;4.73;;;;;;;-143.21;60.73;73783.94;4932808;29;20199;-90
2024/01/27 02:02:20;;;;;;;;;;;;;;;;;;;;;
2024/01/27 02:04:47;;;;;;;13.70;4.47;;;;;;;-143.21;60.22;73783.94;4926025;29;20258;-89
2024/01/27 02:07:14;;;;;;;8.27;4.40;;;;;;;-143.21;60.26;73772.03;4928266;29;20204;-90
2024/01/27 02:09:41;;;;;;;12.23;4.90;;;;;;;-143.21;59.49;73750.22;4918110;29;20203;-91
2024/01/27 02:12:08;;;;;;;9.63;4.27;;;;;;;-143.21;58.91;73726.41;4913763;29;20205;-92
2024/01/27 02:14:35;;;;;;;8.60;4.13;;;;;;;-143.21;58.80;73740.28;4918063;29;20209;-91
2024/01/27 02:17:02;;;;;;;8.10;4.00;;;;;;;-143.21;58.25;73738.31;4916387;29;20761;-90
2024/01/27 02:19:30;;;;;;;10.17;3.70;;;;;;;-143.21;57.58;73740.28;4909023;29;20219;-91
2024/01/27 02:21:57;;;;;;;9.50;4.07;;;;;;;-143.21;56.53;73724.44;4917514;29;20212;-93
2024/01/27 02:24:27;;;;;;;7.13;3.63;;;;;;;-143.21;54.16;73704.59;4918480;29;20244;-91
2024/01/27 02:26:54;;;;;;;7.20;3.53;;;;;;;-143.21;53.58;73682.75;4910999;29;20204;-92
2024/01/27 02:29:21;;;;;;;6.40;3.00;;;;;;;-143.21;53.46;73682.75;4914532;29;20203;-91
2024/01/27 02:31:47;;;;;;;9.03;3.03;;;;;;;-143.21;52.75;73686.72;4915926;29;20207;-91
2024/01/27 02:34:14;;;;;;;6.43;3.00;;;;;;;-143.21;51.81;73674.81;4921497;29;20216;-93
2024/01/27 02:36:43;;;;;;;6.93;3.23;;;;;;;-143.21;51.33;73664.91;4922172;29;20711;-91
2024/01/27 02:39:10;;;;;;;7.17;3.30;;;;;;;-143.21;51.08;73653.00;4914718;29;20278;-92
2024/01/27 02:41:39;;;;;;;8.50;3.13;;;;;;;-143.21;50.61;73637.13;4914352;29;20204;-90
2024/01/27 02:44:06;;;;;;;6.93;3.17;;;;;;;-143.21;50.49;73633.16;4918721;29;20765;-92
2024/01/27 02:46:32;;;;;;;5.93;3.00;;;;;;;-143.21;50.97;73643.09;4920432;29;20210;-89
2024/01/27 02:48:59;;;;;;;5.23;3.00;;;;;;;-143.21;50.02;73647.06;4923672;29;20240;-92
2024/01/27 02:51:26;;;;;;;10.00;3.37;;;;;;;-143.21;49.60;73627.22;4915918;29;20209;-91
2024/01/27 02:53:53;;;;;;;8.60;3.20;;;;;;;-143.21;49.21;73615.31;4915700;29;20213;-91
2024/01/27 02:56:20;;;;;;;7.37;2.80;;;;;;;-143.21;49.55;73607.38;4914664;29;20225;-93
2024/01/27 02:58:48;;;;;;;6.30;2.87;;;;;;;-143.21;48.91;73607.38;4922300;29;20208;-89
2024/01/27 03:01:15;;;;;;;6.87;3.00;;;;;;;-143.21;49.15;73611.34;4896407;29;20202;-90
2024/01/27 03:03:42;;;;;;;7.23;3.57;;;;;;;-143.21;49.82;73611.34;4907640;29;20340;-91
2024/01/27 03:06:10;;;;;;;6.23;3.17;;;;;;;-143.21;49.49;73619.28;4921527;29;20202;-89
2024/01/27 03:08:39;;;;;;;7.47;3.80;;;;;;;-143.21;50.00;73611.34;4923054;29;20205;-90
2024/01/27 03:11:06;;;;;;;10.27;4.23;;;;;;;-143.21;50.23;73587.53;4930528;29;20363;-90
2024/01/27 03:13:33;;;;;;;7.27;3.60;;;;;;;-143.21;50.67;73589.53;4914807;29;20569;-91
2024/01/27 03:16:01;;;;;;;7.87;3.23;;;;;;;-143.21;52.75;73599.44;4915832;29;20209;-90
2024/01/27 03:18:28;;;;;;;4.47;2.83;;;;;;;-143.21;53.33;73621.25;4925719;29;20216;-91
2024/01/27 03:20:55;;;;;;;7.30;3.70;;;;;;;-143.21;54.12;73633.16;4914748;29;20213;-90
2024/01/27 03:23:22;;;;;;;9.20;3.80;;;;;;;-143.21;56.29;73641.09;4912059;29;20241;-90
2024/01/27 03:25:49;;;;;;;8.13;3.60;;;;;;;-143.21;58.21;73645.06;4903833;29;20561;-89
2024/01/27 03:28:16;;;;;;;8.47;4.07;;;;;;;-143.21;59.12;73649.03;4911421;29;20225;-91
2024/01/27 03:30:42;;;;;;;8.60;4.27;;;;;;;-143.21;58.77;73656.97;4913844;29;20250;-90
2024/01/27 03:33:12;;;;;;;7.63;3.97;;;;;;;-143.21;58.90;73658.97;4919056;29;20197;-91
2024/01/27 03:35:39;;;;;;;6.40;3.80;;;;;;;-143.21;58.27;73658.97;4915994;29;20213;-91
2024/01/27 03:38:06;;;;;;;9.90;4.30;;;;;;;-143.21;58.66;73651.03;4916612;29;20236;-89
2024/01/27 03:40:34;;;;;;;10.10;4.57;;;;;;;-143.21;59.26;73645.06;4913533;29;20694;-90
2024/01/27 03:43:03;;;;;;;7.57;3.87;;;;;;;-143.21;60.53;73655.00;4914149;29;20580;-90
2024/01/27 03:45:30;;;;;;;9.60;4.00;;;;;;;-143.21;61.73;73647.06;4929193;29;20200;-92
2024/01/27 03:47:58;;;;;;;7.03;4.30;;;;;;;-143.21;62.96;73655.00;4918391;29;20209;-91
2024/01/27 03:50:26;;;;;;;10.90;5.17;;;;;;;-143.21;63.80;73645.06;4903867;29;20289;-91
2024/01/27 03:52:53;;;;;;;8.33;4.10;;;;;;;-143.21;64.38;73647.06;4914235;29;20208;-92
2024/01/27 03:55:19;;;;;;;9.13;5.00;;;;;;;-143.21;64.89;73647.06;4919755;29;20211;-90
2024/01/27 03:57:46;;;;;;;9.53;4.20;;;;;;;-143.21;64.91;73649.03;4913215;29;20245;-90
2024/01/27 04:00:14;;;;;;;8.27;4.10;;;;;;;-143.21;65.81;73637.13;4915408;29;20656;-90
2024/01/27 04:02:42;;;;;;;9.67;3.70;;;;;;;-143.21;66.24;73637.13;4913409;29;20199;-90
2024/01/27 04:05:09;;;;;;;9.90;4.20;;;;;;;-143.21;66.77;73643.09;4915086;29;20615;-92
2024/01/27 04:07:37;;;;;;;5.23;3.27;;;;;;;-143.21;67.56;73647.06;4907059;29;20218;-91
2024/01/27 04:10:07;;;;;;;8.00;4.17;;;;;;;-143.21;67.29;73647.06;4914878;29;20258;-93
2024/01/27 04:12:34;;;;;;;8.20;4.03;;;;;;;-143.21;67.77;73649.03;4915854;29;20205;-92
2024/01/27 04:15:01;;;;;;;7.83;4.60;;;;;;;-143.21;68.53;73651.03;4924174;29;20593;-92
2024/01/27 04:17:32;;;;;;;7.43;4.20;;;;;;;-143.21;68.61;73653.00;4918847;29;20680;-90
2024/01/27 04:19:59;;;;;;;8.77;4.90;;;;;;;-143.21;69.55;73664.91;4918434;29;21078;-91
2024/01/27 04:22:26;;;;;;;12.63;5.43;;;;;;;-143.21;69.50;73658.97;4926579;29;20215;-91
2024/01/27 04:24:57;;;;;;;10.17;5.33;;;;;;;-143.21;69.62;73666.88;4914864;29;20232;-91
2024/01/27 04:27:24;;;;;;;12.43;5.07;;;;;;;-143.21;69.20;73668.88;4911902;29;20280;-91
2024/01/27 04:29:51;;;;;;;11.50;6.00;;;;;;;-143.21;69.14;73655.00;4917292;29;20267;-90
2024/01/27 04:32:17;;;;;;;10.30;5.30;;;;;;;-143.21;69.40;73651.03;4918001;29;20203;-90
2024/01/27 04:34:44;;;;;;;13.03;5.50;;;;;;;-143.21;70.63;73682.75;4918773;29;20202;-91
2024/01/27 04:37:11;;;;;;;12.30;5.67;;;;;;;-143.21;71.42;73708.56;4920739;29;20219;-89
2024/01/27 04:39:38;;;;;;;11.93;5.50;;;;;;;-143.21;72.21;73716.50;4929924;29;20206;-90
2024/01/27 04:42:09;;;;;;;9.03;4.97;;;;;;;-143.21;72.13;73690.69;4918078;29;20217;-91
2024/01/27 04:44:36;;;;;;;8.30;3.80;;;;;;;-143.21;72.22;73676.81;4906305;29;20589;-92
2024/01/27 04:47:03;;;;;;;7.50;4.30;;;;;;;-143.21;72.92;73678.78;4917964;29;20212;-91
2024/01/27 04:49:29;;;;;;;7.80;4.40;;;;;;;-143.21;73.08;73670.84;4909724;29;20227;-89
2024/01/27 04:51:59;;;;;;;15.80;5.90;;;;;;;-143.21;72.79;73666.88;4909625;29;20221;-92
2024/01/27 04:54:26;;;;;;;10.23;5.03;;;;;;;-143.21;73.52;73670.84;4879359;29;20213;-91
2024/01/27 04:56:53;;;;;;;12.27;5.40;;;;;;;-143.21;73.91;73670.84;4916848;29;20263;-90
2024/01/27 04:59:21;;;;;;;8.37;3.93;;;;;;;-143.21;74.62;73676.81;4919848;29;20217;-91
2024/01/27 05:01:48;;;;;;;9.83;4.17;;;;;;;-143.21;75.02;73678.78;4916147;29;20264;-91
2024/01/27 05:04:15;;;;;;;7.53;4.00;;;;;;;-143.21;75.71;73684.75;4915445;29;20209;-90
2024/01/27 05:06:45;;;;;;;7.47;4.20;;;;;;;-143.21;76.08;73690.69;4920687;29;20210;-90
2024/01/27 05:09:12;;;;;;;7.40;4.43;;;;;;;-143.21;76.51;73678.78;4913790;29;20588;-91
2024/01/27 05:11:39;;;;;;;7.97;4.40;;;;;;;-143.21;76.37;73678.78;4916316;29;20868;-90
2024/01/27 05:14:06;;;;;;;10.00;4.63;;;;;;;-143.21;76.84;73668.88;4922590;29;20202;-92
2024/01/27 05:16:35;;;;;;;7.57;4.30;;;;;;;-143.21;76.67;73664.91;4922307;29;20205;-91
2024/01/27 05:19:02;;;;;;;11.47;4.57;;;;;;;-143.21;77.02;73682.75;4926746;29;20225;-91
2024/01/27 05:21:29;;;;;;;7.60;4.30;;;;;;;-143.21;77.80;73674.81;4926637;29;20204;-91
2024/01/27 05:23:56;;;;;;;9.53;5.23;;;;;;;-143.21;78.55;73690.69;4916595;29;20237;-91
2024/01/27 05:26:23;;;;;;;10.50;4.87;;;;;;;-143.21;79.16;73698.63;4919592;29;20216;-90
2024/01/27 05:28:59;;;;;;;10.07;4.67;;;;;;;-143.21;78.99;73684.75;4918013;29;20675;-91
2024/01/27 05:31:27;;;;;;;9.27;4.37;;;;;;;-143.21;78.81;73678.78;4917541;29;20195;-91
2024/01/27 05:33:55;;;;;;;9.40;4.83;;;;;;;-143.21;79.77;73686.72;4917068;29;20198;-91
2024/01/27 05:36:25;;;;;;;7.33;4.20;;;;;;;-143.21;80.05;73698.63;4916746;29;20247;-92
2024/01/27 05:39:47;;;;;;;11.13;5.00;;;;;;;-143.21;80.10;73700.63;4909978;29;20427;-92
2024/01/27 05:42:13;;;;;;;13.43;6.17;;;;;;;-143.21;80.49;73700.63;4912209;29;20279;-91
2024/01/27 05:44:41;;;;;;;15.50;6.80;;;;;;;-143.21;80.85;73708.56;4906039;29;20225;-91
2024/01/27 05:47:10;;;;;;;14.53;7.00;;;;;;;-143.21;80.81;73700.63;4925440;29;20210;-91
2024/01/27 05:49:39;;;;;;;14.43;7.17;;;;;;;-143.21;81.09;73718.47;4929455;29;20209;-90
2024/01/27 05:52:06;;;;;;;12.83;6.30;;;;;;;-143.21;80.88;73734.34;4915285;29;20205;-91
2024/01/27 05:54:33;;;;;;;13.40;5.33;;;;;;;-143.21;81.05;73744.25;4917020;29;20272;-90
2024/01/27 05:57:00;;;;;;;12.73;5.70;;;;;;;-143.21;81.89;73742.28;4915653;29;20640;-90
2024/01/27 05:59:27;;;;;;;11.93;6.17;;;;;;;-143.21;82.05;73740.28;4907349;29;20205;-92
2024/01/27 06:01:54;;;;;;;15.03;7.10;;;;;;;-143.21;82.22;73748.22;4917156;29;20200;-91
2024/01/27 06:04:23;;;;;;;11.10;6.23;;;;;;;-143.21;82.44;73732.38;4922165;29;20579;-91
2024/01/27 06:07:02;;;;;;;;;;;;;;;;;;;;;
2024/01/27 06:09:31;;;;;;;9.93;5.40;;;;;;;-143.21;82.54;73748.22;4945027;29;20248;-92
2024/01/27 06:12:10;;;;;;;;;;;;;;;;;;;;;
2024/01/27 06:14:37;;;;;;;15.67;8.13;;;;;;;-143.21;82.88;73766.09;4941310;23;20256;-93
2024/01/27 06:17:05;;;;;;;14.90;7.57;;;;;;;-143.21;83.08;73772.03;4913602;29;20220;-92
2024/01/27 06:19:41;;;;;;;12.87;6.53;;;;;;;-143.21;83.52;73785.94;4909399;29;20251;-91
2024/01/27 06:22:12;;;;;;;11.77;5.60;;;;;;;-143.21;83.94;73801.81;4919310;29;20211;-93
2024/01/27 06:24:43;;;;;;;10.37;5.50;;;;;;;-143.21;82.96;73774.03;4915243;29;20220;-90
2024/01/27 06:27:10;;;;;;;12.23;6.60;;;;;;;-143.21;82.87;73772.03;4907575;29;20263;-92
2024/01/27 06:29:37;;;;;;;15.07;6.23;;;;;;;-143.21;82.84;73799.81;4914917;29;20214;-92
2024/01/27 06:32:04;;;;;;;11.20;5.93;;;;;;;-143.21;83.54;73819.66;4914922;29;20228;-91
2024/01/27 06:34:32;;;;;;;10.60;5.63;;;;;;;-143.21;83.62;73819.66;4915767;29;20212;-92
2024/01/27 06:36:59;;;;;;;10.10;4.83;;;;;;;-143.21;83.87;73817.69;4911491;29;20199;-92
2024/01/27 06:39:29;;;;;;;8.37;4.83;;;;;;;-143.21;83.57;73805.78;4911491;29;20238;-91
2024/01/27 06:41:56;;;;;;;8.57;5.03;;;;;;;-143.21;83.01;73779.97;4914937;29;20211;-91
2024/01/27 06:44:23;;;;;;;9.97;5.47;;;;;;;-143.21;82.81;73762.13;4916267;29;20234;-90
2024/01/27 06:46:50;;;;;;;11.57;6.10;;;;;;;-143.21;82.13;73760.13;4913194;29;20213;-92
2024/01/27 06:49:17;;;;;;;7.90;5.20;;;;;;;-143.21;82.25;73770.06;4915291;29;20202;-90
2024/01/27 06:51:45;;;;;;;6.83;4.70;;;;;;;-143.21;82.28;73774.03;4908895;29;20602;-90
2024/01/27 06:54:11;;;;;;;8.00;4.73;;;;;;;-143.21;82.22;73768.06;4910906;29;20197;-90
2024/01/27 06:56:40;;;;;;;5.80;3.53;;;;;;;-143.21;81.08;73740.28;4906729;29;20658;-91
2024/01/27 06:59:07;;;;;;;6.73;4.43;;;;;;;-143.21;80.60;73738.31;4918066;29;20224;-91
2024/01/27 07:01:34;;;;;;;5.87;3.60;;;;;;;-143.21;80.10;73736.34;4915590;29;20225;-92
2024/01/27 07:04:01;;;;;;;5.17;3.13;;;;;;;-143.21;79.36;73720.47;4905144;29;20206;-91
2024/01/27 07:06:27;;;;;;;7.23;3.17;;;;;;;-143.21;77.82;73700.63;4914037;29;20208;-90
2024/01/27 07:08:54;;;;;;;6.70;3.93;;;;;;;-143.21;76.76;73686.72;4910743;29;20216;-91
2024/01/27 07:11:21;;;;;;;7.93;4.37;;;;;;;-143.21;76.74;73676.81;4914793;29;20208;-91
2024/01/27 07:13:50;;;;;;;7.47;4.40;;;;;;;-143.21;76.08;73666.88;4911641;29;20242;-91
2024/01/27 07:16:17;;;;;;;7.10;4.17;;;;;;;-143.21;75.93;73680.78;4914925;29;20216;-90
2024/01/27 07:18:43;;;;;;;6.37;3.93;;;;;;;-143.21;75.32;73682.75;4910380;29;20232;-90
2024/01/27 07:21:16;;;;;;;7.60;3.80;;;;;;;-143.21;75.21;73684.75;4911560;29;20224;-90
2024/01/27 07:23:43;;;;;;;7.63;4.43;;;;;;;-143.21;74.81;73684.75;4901236;29;20266;-91
2024/01/27 07:26:11;;;;;;;8.57;3.63;;;;;;;-143.21;74.57;73700.63;4888860;29;20201;-90
2024/01/27 07:28:37;;;;;;;8.53;4.73;;;;;;;-143.21;74.74;73692.69;4914906;29;20232;-91
2024/01/27 07:31:06;;;;;;;7.63;4.60;;;;;;;-143.21;75.41;73714.50;4914427;29;20208;-92
2024/01/27 07:33:33;;;;;;;8.27;4.30;;;;;;;-143.21;75.38;73744.25;4912807;29;20205;-90
2024/01/27 07:36:01;;;;;;;8.80;4.50;;;;;;;-143.21;74.67;73748.22;4902484;29;20214;-92
2024/01/27 07:41:02;;;;;;;4.53;3.40;;;;;;;-143.21;74.16;73787.91;4922851;23;20255;-90
2024/01/27 07:43:29;;;;;;;5.87;3.80;;;;;;;-143.21;73.88;73787.91;4927533;29;20216;-89
2024/01/27 07:45:56;;;;;;;6.53;4.20;;;;;;;-143.21;74.01;73801.81;4916256;29;20211;-89
2024/01/27 07:48:24;;;;;;;6.23;3.50;;;;;;;-143.21;73.66;73805.78;4911462;29;20208;-92
2024/01/27 07:50:51;;;;;;;4.50;3.40;;;;;;;-143.21;73.56;73803.78;4918125;29;20213;-89
2024/01/27 07:53:18;;;;;;;5.43;3.60;;;;;;;-143.21;72.59;73809.75;4908312;29;20384;-91
2024/01/27 07:55:45;;;;;;;5.73;3.30;;;;;;;-143.21;71.83;73805.78;4911973;29;20695;-91
2024/01/27 07:58:12;;;;;;;5.40;3.70;;;;;;;-143.21;71.26;73809.75;4909450;29;20241;-91
2024/01/27 08:00:38;;;;;;;4.70;3.43;;;;;;;-143.21;71.28;73813.72;4906800;29;20210;-92
2024/01/27 08:03:05;;;;;;;5.47;4.33;;;;;;;-143.21;71.23;73813.72;4899565;29;20211;-91
2024/01/27 08:05:34;;;;;;;7.57;4.37;;;;;;;-143.21;71.74;73823.63;4908702;29;20227;-92
2024/01/27 08:08:01;;;;;;;8.07;4.70;;;;;;;-143.21;71.86;73835.53;4902746;29;20573;-91
2024/01/27 08:10:28;;;;;;;8.67;5.00;;;;;;;-143.21;71.60;73817.69;4921224;29;20222;-90
2024/01/27 08:12:54;;;;;;;9.10;5.47;;;;;;;-143.21;72.11;73831.56;4905796;29;20196;-91
2024/01/27 08:15:21;;;;;;;10.47;5.90;;;;;;;-143.21;72.03;73831.56;4908345;29;20205;-91
2024/01/27 08:17:48;;;;;;;6.77;4.43;;;;;;;-143.21;71.94;73807.75;4913567;29;20267;-92
2024/01/27 08:20:15;;;;;;;10.07;5.40;;;;;;;-143.21;71.73;73799.81;4913788;29;20275;-88
2024/01/27 08:22:43;;;;;;;9.67;5.07;;;;;;;-143.21;71.63;73797.84;4906256;29;20278;-89
2024/01/27 08:25:10;;;;;;;9.53;5.03;;;;;;;-143.21;72.04;73817.69;4916264;29;21229;-89
2024/01/27 08:27:37;;;;;;;9.27;5.30;;;;;;;-143.21;71.44;73811.72;4912941;29;20702;-91
2024/01/27 08:30:06;;;;;;;12.53;5.37;;;;;;;-143.21;70.75;73799.81;4911534;29;20218;-92
2024/01/27 08:32:34;;;;;;;10.17;5.70;;;;;;;-143.21;70.47;73779.97;4902778;29;20237;-90
2024/01/27 08:35:01;;;;;;;10.30;4.50;;;;;;;-143.21;69.93;73772.03;4916306;29;20203;-92
2024/01/27 08:37:29;;;;;;;11.70;6.60;;;;;;;-143.21;69.24;73772.03;4915065;29;20630;-90
2024/01/27 08:39:58;;;;;;;9.87;5.70;;;;;;;-143.21;69.25;73787.91;4906743;29;20240;-92
2024/01/27 08:42:25;;;;;;;7.30;4.43;;;;;;;-143.21;69.09;73772.03;4913475;29;20691;-90
2024/01/27 08:44:52;;;;;;;7.00;4.70;;;;;;;-143.21;69.43;73760.13;4910734;29;20714;-92
2024/01/27 08:47:19;;;;;;;8.17;5.33;;;;;;;-143.21;68.38;73766.09;4910397;29;20720;-91
2024/01/27 08:49:45;;;;;;;9.03;4.90;;;;;;;-143.21;69.17;73770.06;4916151;29;20212;-92
2024/01/27 08:52:13;;;;;;;6.10;4.27;;;;;;;-143.21;69.48;73791.88;4911659;29;20309;-92
2024/01/27 08:54:40;;;;;;;5.83;4.10;;;;;;;-143.21;69.68;73783.94;4917637;29;20267;-92
2024/01/27 08:57:09;;;;;;;4.13;3.47;;;;;;;-143.21;69.45;73778.00;4914179;29;20758;-91
2024/01/27 08:59:36;;;;;;;6.90;4.40;;;;;;;-143.21;69.77;73781.97;4920206;29;20325;-90
2024/01/27 09:02:04;;;;;;;8.17;4.70;;;;;;;-143.21;69.87;73774.03;4899728;29;20200;-91
2024/01/27 09:04:33;;;;;;;12.10;5.70;;;;;;;-143.21;70.16;73797.84;4904440;29;20271;-89
2024/01/27 09:06:59;;;;;;;6.50;4.60;;;;;;;-143.21;69.50;73779.97;4924818;29;20206;-91
2024/01/27 09:09:28;;;;;;;8.10;4.33;;;;;;;-143.21;69.80;73778.00;4924420;29;20205;-91
2024/01/27 09:11:55;;;;;;;8.00;5.27;;;;;;;-143.21;69.13;73772.03;4919571;29;20276;-92
2024/01/27 09:14:24;;;;;;;7.00;4.47;;;;;;;-143.21;68.75;73762.13;4926029;29;20202;-87
2024/01/27 09:16:52;;;;;;;6.03;4.30;;;;;;;-143.21;67.62;73748.22;4930922;29;20207;-88
2024/01/27 09:19:19;;;;;;;6.33;4.30;;;;;;;-143.21;67.67;73742.28;4938785;28;20230;-91
2024/01/27 09:21:46;;;;;;;7.50;5.23;;;;;;;-143.21;67.95;73742.28;4918867;29;20298;-91
2024/01/27 09:24:13;;;;;;;6.43;4.17;;;;;;;-143.21;67.74;73752.19;4893179;29;20281;-90
2024/01/27 09:26:40;;;;;;;8.20;5.60;;;;;;;-143.21;68.04;73758.16;4922946;29;20221;-92
2024/01/27 09:29:09;;;;;;;8.87;5.27;;;;;;;-143.21;67.53;73750.22;4912899;29;20598;-91
2024/01/27 09:34:09;;;;;;;7.33;4.30;;;;;;;-143.21;67.83;73718.47;4920066;23;20248;-91
2024/01/27 09:36:37;;;;;;;8.23;4.87;;;;;;;-143.21;67.11;73710.53;4908646;29;20630;-95
2024/01/27 09:39:04;;;;;;;8.13;4.73;;;;;;;-143.21;67.27;73726.41;4917452;29;20315;-93
2024/01/27 09:41:32;;;;;;;6.03;4.40;;;;;;;-143.21;67.50;73716.50;4908755;29;20206;-93
2024/01/27 09:44:03;;;;;;;5.37;4.30;;;;;;;-143.21;67.74;73708.56;4889928;29;20231;-92
2024/01/27 09:46:30;;;;;;;7.60;4.60;;;;;;;-143.21;67.20;73714.50;4898108;29;20647;-92
2024/01/27 09:48:57;;;;;;;6.90;4.10;;;;;;;-143.21;67.53;73744.25;4895771;29;20215;-92
2024/01/27 09:54:36;;;;;;;7.83;4.43;;;;;;;-143.21;67.37;73770.06;4930600;23;20232;-91
2024/01/27 09:57:03;;;;;;;7.10;4.93;;;;;;;-143.21;67.50;73785.94;4910505;29;20202;-91
2024/01/27 09:59:30;;;;;;;7.30;4.03;;;;;;;-143.21;67.60;73776.00;4913111;29;20326;-90
2024/01/27 10:01:59;;;;;;;5.50;3.40;;;;;;;-143.21;67.48;73770.06;4899955;29;20299;-90
2024/01/27 10:04:26;;;;;;;6.47;4.90;;;;;;;-143.21;67.84;73795.84;4911605;29;20205;-91
2024/01/27 10:06:53;;;;;;;5.43;4.27;;;;;;;-143.21;68.02;73795.84;4910316;29;20212;-92
2024/01/27 10:09:20;;;;;;;7.00;4.30;;;;;;;-143.21;68.50;73793.88;4920907;29;20209;-93
2024/01/27 10:11:49;;;;;;;7.40;4.50;;;;;;;-143.21;69.19;73819.66;4905735;29;20668;-90
2024/01/27 10:14:16;;;;;;;6.37;4.30;;;;;;;-143.21;68.96;73815.69;4912782;29;20204;-89
2024/01/27 10:16:43;;;;;;;5.43;4.03;;;;;;;-143.21;69.55;73831.56;4902777;29;20615;-90
2024/01/27 10:19:16;;;;;;;7.73;5.77;;;;;;;-143.21;69.55;73815.69;4908386;29;20351;-89
2024/01/27 10:21:42;;;;;;;8.10;5.77;;;;;;;-143.21;69.42;73815.69;4915923;29;20233;-93
2024/01/27 10:24:09;;;;;;;8.23;5.63;;;;;;;-143.21;69.47;73831.56;4915345;29;20204;-92
2024/01/27 10:26:36;;;;;;;6.80;4.77;;;;;;;-143.21;69.59;73839.50;4922308;29;20285;-92
2024/01/27 10:29:05;;;;;;;6.63;4.37;;;;;;;-143.21;69.60;73841.47;4915340;29;20203;-92
2024/01/27 10:31:35;;;;;;;10.53;5.00;;;;;;;-143.21;70.01;73845.44;4909789;29;20663;-91
2024/01/27 10:34:09;;;;;;;6.57;4.60;;;;;;;-143.21;70.13;73849.41;4919341;29;20228;-91
2024/01/27 10:36:42;;;;;;;8.20;4.70;;;;;;;-143.21;70.10;73841.47;4926049;29;20206;-91
2024/01/27 10:39:17;;;;;;;8.50;5.10;;;;;;;-143.21;70.11;73845.44;4905932;29;20599;-91
2024/01/27 10:41:46;;;;;;;9.10;5.47;;;;;;;-143.21;70.00;73859.34;4917244;29;20460;-92
2024/01/27 10:44:18;;;;;;;6.87;4.47;;;;;;;-143.21;69.99;73841.47;4916726;29;20226;-92
2024/01/27 10:46:46;;;;;;;6.43;4.17;;;;;;;-143.21;69.84;73849.41;4920881;29;20229;-88
2024/01/27 10:49:15;;;;;;;6.33;4.27;;;;;;;-143.21;70.60;73871.25;4932614;29;20666;-90
2024/01/27 10:51:46;;;;;;;7.03;4.20;;;;;;;-143.21;70.31;73857.34;4915015;29;20251;-89
2024/01/27 10:54:16;;;;;;;6.50;4.60;;;;;;;-143.21;70.35;73871.25;4928219;29;20278;-89
2024/01/27 10:56:45;;;;;;;10.60;5.97;;;;;;;-143.21;70.88;73881.16;4918282;29;20252;-88
2024/01/27 10:59:15;;;;;;;7.43;4.60;;;;;;;-143.21;71.30;73881.16;4912432;29;20221;-89
2024/01/27 11:01:44;;;;;;;6.57;4.73;;;;;;;-143.21;71.21;73883.16;4921417;29;20200;-90
2024/01/27 11:04:14;;;;;;;7.97;5.20;;;;;;;-143.21;71.62;73881.16;4922509;29;20266;-87
2024/01/27 11:06:44;;;;;;;7.67;4.77;;;;;;;-143.21;71.71;73887.13;4915391;29;20235;-87
2024/01/27 11:09:13;;;;;;;5.83;4.80;;;;;;;-143.21;71.42;73897.03;4914089;29;20268;-92
2024/01/27 11:11:41;;;;;;;6.33;4.90;;;;;;;-143.21;72.28;73899.03;4917412;29;20426;-93
2024/01/27 11:14:09;;;;;;;10.97;5.87;;;;;;;-143.21;72.24;73883.16;4911492;29;20216;-92
2024/01/27 11:16:43;;;;;;;7.70;5.00;;;;;;;-143.21;72.53;73883.16;4913405;29;20210;-93
2024/01/27 11:19:12;;;;;;;4.30;3.83;;;;;;;-143.21;72.43;73895.06;4907206;29;20697;-92
2024/01/27 11:21:39;;;;;;;5.47;4.30;;;;;;;-143.21;73.23;73914.91;4903402;29;20208;-93
2024/01/27 11:24:14;;;;;;;6.07;4.73;;;;;;;-143.21;73.60;73904.97;4890662;29;20267;-93
2024/01/27 11:26:41;;;;;;;8.23;5.67;;;;;;;-143.21;73.40;73889.09;4906088;29;20332;-88
2024/01/27 11:29:09;;;;;;;7.37;5.57;;;;;;;-143.21;73.10;73893.06;4909967;29;20241;-91
2024/01/27 11:31:36;;;;;;;10.77;6.77;;;;;;;-143.21;73.13;73897.03;4907715;29;20361;-94
2024/01/27 11:34:04;;;;;;;7.53;4.57;;;;;;;-143.21;72.70;73889.09;4914583;29;20305;-92
2024/01/27 11:36:34;;;;;;;7.10;5.27;;;;;;;-143.21;72.01;73903.00;4916214;29;20741;-92